Time;durP1;ratioP1;P1;durP2;ratioP2;P2;SDS_P1;SDS_P2;PMS_P1;PMS_P2;Temp;Humidity;BMP_temperature;BMP_pressure;BME280_temperature;BME280_humidity;BME280_pressure;Samples;Min_cycle;Max_cycle;Signal;HPM_P1;HPM_P2
2023/12/11 00:01:46;;;;;;;16.50;11.10;;;;;;;-0.13;96.79;99884.80;106489;1257;61255;-76
2023/12/11 00:04:13;;;;;;;14.70;11.10;;;;;;;-0.03;96.36;99885.77;107047;1254;59656;-76
2023/12/11 00:06:40;;;;;;;18.30;13.20;;;;;;;-0.04;96.30;99889.48;107435;1255;71692;-76
2023/12/11 00:09:07;;;;;;;19.40;13.20;;;;;;;-0.08;96.49;99889.75;106334;1251;70453;-76
2023/12/11 00:11:34;;;;;;;15.60;12.40;;;;;;;-0.10;96.87;99882.94;106130;1251;72423;-75
2023/12/11 00:14:01;;;;;;;16.20;11.80;;;;;;;-0.01;96.79;99886.16;105981;1257;59975;-74
2023/12/11 00:16:29;;;;;;;17.20;12.80;;;;;;;0.08;96.27;99877.77;106026;1251;60342;-75
2023/12/11 00:18:57;;;;;;;16.50;11.60;;;;;;;0.04;96.39;99871.40;106078;1257;73046;-77
2023/12/11 00:21:24;;;;;;;17.50;13.00;;;;;;;0.01;96.52;99868.45;106426;1255;68782;-75
2023/12/11 00:23:52;;;;;;;15.30;10.40;;;;;;;-0.03;96.64;99868.68;105973;1254;72908;-76
2023/12/11 00:26:19;;;;;;;14.20;10.20;;;;;;;0.04;96.23;99867.40;106043;1257;63235;-76
2023/12/11 00:28:47;;;;;;;13.30;10.20;;;;;;;0.10;95.77;99863.91;105836;1257;60166;-74
2023/12/11 00:31:14;;;;;;;13.80;10.90;;;;;;;0.05;96.17;99862.13;106028;1251;71801;-76
2023/12/11 00:33:41;;;;;;;15.40;10.90;;;;;;;0.01;96.43;99854.04;105987;1254;70137;-75
2023/12/11 00:36:08;;;;;;;13.90;10.30;;;;;;;-0.05;96.49;99842.18;105826;1254;72678;-74
2023/12/11 00:38:35;;;;;;;12.40;10.20;;;;;;;0.01;96.28;99835.87;105900;1257;59737;-75
2023/12/11 00:41:02;;;;;;;14.90;10.80;;;;;;;0.10;95.92;99841.55;105892;1254;60299;-75
2023/12/11 00:43:29;;;;;;;12.90;9.80;;;;;;;0.10;96.05;99843.69;105828;1257;73335;-76
2023/12/11 00:46:13;;;;;;;12.40;9.20;;;;;;;0.04;96.22;99843.05;106029;1257;69086;-77
2023/12/11 00:48:40;;;;;;;11.40;8.60;;;;;;;-0.01;96.30;99843.52;106000;1254;70831;-75
2023/12/11 00:51:14;;;;;;;11.30;8.40;;;;;;;0.04;95.90;99847.52;106867;1254;61242;-74
2023/12/11 00:53:41;;;;;;;;;;;;;;;0.12;95.55;99841.45;106006;1257;59730;-75
2023/12/11 00:56:08;;;;;;;18.50;9.50;;;;;;;0.09;95.72;99836.23;106867;1254;72896;-78
2023/12/11 00:58:35;;;;;;;11.90;9.30;;;;;;;0.03;96.21;99831.05;107970;1254;68920;-75
2023/12/11 01:01:02;;;;;;;13.00;9.00;;;;;;;0.00;96.17;99826.73;106889;1256;71744;-77
2023/12/11 01:03:30;;;;;;;11.80;9.10;;;;;;;0.06;95.77;99826.17;105881;1257;61045;-76
2023/12/11 01:05:57;;;;;;;11.80;8.20;;;;;;;0.12;95.41;99821.23;105952;1252;60315;-76
2023/12/11 01:08:27;;;;;;;12.90;9.20;;;;;;;0.07;95.59;99818.97;106078;1254;71711;-75
2023/12/11 01:10:54;;;;;;;12.00;9.70;;;;;;;-0.01;95.74;99820.16;105899;1256;69101;-76
2023/12/11 01:13:22;;;;;;;12.40;8.90;;;;;;;-0.06;95.98;99826.92;105982;1257;72685;-75
2023/12/11 01:15:48;;;;;;;12.40;9.20;;;;;;;-0.01;95.77;99822.09;105858;1257;61175;-75
2023/12/11 01:18:15;;;;;;;11.70;9.60;;;;;;;0.06;95.67;99827.39;105759;1253;60211;-78
2023/12/11 01:20:42;;;;;;;12.80;9.90;;;;;;;0.05;95.99;99820.80;105720;1258;72834;-74
2023/12/11 01:23:09;;;;;;;12.10;9.30;;;;;;;0.04;96.40;99819.34;105841;1256;68954;-76
2023/12/11 01:25:36;;;;;;;12.60;9.30;;;;;;;0.01;96.21;99806.80;105832;1254;72855;-77
2023/12/11 01:28:03;;;;;;;9.70;7.50;;;;;;;0.05;95.62;99808.85;105971;1256;60862;-75
2023/12/11 01:30:29;;;;;;;11.80;8.50;;;;;;;0.07;95.13;99808.48;105929;1253;60209;-76
2023/12/11 01:32:56;;;;;;;11.40;9.00;;;;;;;0.01;95.14;99813.77;105933;1253;73064;-75
2023/12/11 01:35:23;;;;;;;11.90;9.50;;;;;;;-0.07;95.53;99814.27;105890;1253;69563;-77
2023/12/11 01:37:50;;;;;;;14.00;9.40;;;;;;;-0.13;95.76;99811.70;105807;1253;72530;-75
2023/12/11 01:40:17;;;;;;;10.80;8.00;;;;;;;-0.09;95.64;99799.77;105792;1256;60917;-75
2023/12/11 01:42:44;;;;;;;11.50;8.40;;;;;;;-0.02;95.50;99793.05;105779;1256;59531;-77
2023/12/11 01:45:11;;;;;;;12.40;9.30;;;;;;;-0.03;95.65;99787.95;105822;1253;73089;-76
2023/12/11 01:47:37;;;;;;;11.70;9.50;;;;;;;-0.09;95.88;99786.39;105729;1254;70151;-76
2023/12/11 01:50:07;;;;;;;11.60;9.20;;;;;;;-0.14;96.02;99789.84;106869;1254;71315;-76
2023/12/11 01:52:35;;;;;;;10.30;8.20;;;;;;;-0.11;95.73;99780.08;107871;1254;61161;-75
2023/12/11 01:55:03;;;;;;;14.60;10.00;;;;;;;-0.05;95.49;99784.55;106513;1253;59631;-74
2023/12/11 01:57:29;;;;;;;13.90;10.40;;;;;;;-0.08;95.55;99789.24;106121;1254;73053;-73
2023/12/11 01:59:57;;;;;;;14.90;11.10;;;;;;;-0.13;95.81;99796.05;105707;1253;70323;-74
2023/12/11 02:02:24;;;;;;;14.60;10.40;;;;;;;-0.17;96.17;99799.09;105617;1254;72663;-75
2023/12/11 02:04:53;;;;;;;15.60;11.00;;;;;;;-0.11;96.02;99781.46;106006;1252;60029;-76
2023/12/11 02:07:20;;;;;;;16.10;11.50;;;;;;;-0.05;96.22;99778.79;105847;1257;60085;-77
2023/12/11 02:09:47;;;;;;;14.50;10.80;;;;;;;-0.09;96.23;99776.48;105880;1256;73068;-75
2023/12/11 02:12:14;;;;;;;15.90;11.20;;;;;;;-0.16;96.46;99781.77;105773;1254;70101;-77
2023/12/11 02:14:41;;;;;;;15.30;10.90;;;;;;;-0.19;96.57;99775.02;105738;1259;72647;-75
2023/12/11 02:17:09;;;;;;;15.60;10.20;;;;;;;-0.12;96.21;99768.98;105861;1254;61128;-76
2023/12/11 02:19:36;;;;;;;14.80;10.80;;;;;;;-0.10;96.20;99768.36;105829;1259;60157;-75
2023/12/11 02:22:03;;;;;;;14.50;11.10;;;;;;;-0.16;96.26;99778.00;105734;1253;73092;-76
2023/12/11 02:24:33;;;;;;;13.90;10.70;;;;;;;-0.22;96.51;99777.30;105799;1252;70227;-76
2023/12/11 02:27:00;;;;;;;13.00;9.40;;;;;;;-0.17;96.25;99774.02;106110;1253;71183;-76
2023/12/11 02:29:26;;;;;;;14.70;10.20;;;;;;;-0.12;95.99;99768.69;105689;1253;59735;-75
2023/12/11 02:31:53;;;;;;;16.20;11.40;;;;;;;-0.15;96.18;99768.99;105820;1256;60407;-75
2023/12/11 02:34:20;;;;;;;16.10;11.60;;;;;;;-0.18;96.39;99763.66;105892;1257;71586;-74
2023/12/11 02:36:48;;;;;;;14.20;10.10;;;;;;;-0.21;96.45;99755.08;105822;1254;70191;-74
2023/12/11 02:39:14;;;;;;;13.80;10.20;;;;;;;-0.12;96.04;99758.54;106178;1254;72521;-77
2023/12/11 02:41:41;;;;;;;18.00;11.40;;;;;;;-0.07;95.81;99764.84;105753;1256;59657;-74
2023/12/11 02:44:08;;;;;;;15.50;11.80;;;;;;;-0.10;96.07;99762.45;106656;1253;60386;-75
2023/12/11 02:46:37;;;;;;;13.60;9.70;;;;;;;-0.12;96.30;99766.93;106885;1258;71811;-74
2023/12/11 02:49:04;;;;;;;14.10;9.80;;;;;;;-0.10;96.03;99767.65;106144;1253;68817;-75
2023/12/11 02:51:31;;;;;;;13.90;9.90;;;;;;;-0.02;95.54;99767.64;105974;1253;72622;-76
2023/12/11 02:53:58;;;;;;;15.00;10.00;;;;;;;-0.03;95.43;99769.80;106023;1254;59733;-76
2023/12/11 02:56:25;;;;;;;13.50;9.70;;;;;;;-0.10;95.62;99771.13;105974;1253;60128;-77
2023/12/11 02:58:52;;;;;;;13.00;8.60;;;;;;;-0.15;95.65;99771.98;105777;1257;72870;-73
2023/12/11 03:01:19;;;;;;;11.50;8.50;;;;;;;-0.11;95.31;99773.98;105658;1260;69681;-73
2023/12/11 03:03:45;;;;;;;13.20;8.50;;;;;;;-0.10;95.28;99773.05;105836;1254;71200;-75
2023/12/11 03:06:21;;;;;;;12.40;8.60;;;;;;;-0.15;95.56;99775.81;105898;1253;59778;-74
2023/12/11 03:08:48;;;;;;;13.10;8.60;;;;;;;-0.22;95.85;99779.35;105876;1253;59724;-74
2023/12/11 03:11:15;;;;;;;15.70;8.70;;;;;;;-0.20;95.77;99772.46;106070;1254;71570;-75
2023/12/11 03:13:42;;;;;;;12.00;9.40;;;;;;;-0.10;95.50;99770.11;105923;1253;69408;-74
2023/12/11 03:16:12;;;;;;;11.70;8.50;;;;;;;-0.11;95.55;99774.70;105786;1253;72586;-74
2023/12/11 03:18:42;;;;;;;12.80;9.10;;;;;;;-0.18;95.83;99777.42;105972;1253;59542;-75
2023/12/11 03:21:09;;;;;;;12.10;8.50;;;;;;;-0.20;95.81;99774.22;105985;1253;61156;-74
2023/12/11 03:23:38;;;;;;;13.70;9.20;;;;;;;-0.13;95.96;99783.67;105815;1257;71953;-75
2023/12/11 03:26:05;;;;;;;11.80;8.30;;;;;;;-0.14;95.88;99776.23;105885;1258;68863;-73
2023/12/11 03:28:32;;;;;;;12.40;9.20;;;;;;;-0.19;96.30;99781.77;105806;1256;71441;-75
2023/12/11 03:30:58;;;;;;;11.20;8.10;;;;;;;-0.23;96.66;99784.46;105679;1253;61269;-72
2023/12/11 03:33:25;;;;;;;8.70;6.60;;;;;;;-0.16;96.42;99787.52;105799;1254;59608;-71
2023/12/11 03:35:52;;;;;;;8.70;6.40;;;;;;;-0.10;96.10;99789.92;105838;1256;72850;-73
2023/12/11 03:38:19;;;;;;;8.10;6.20;;;;;;;-0.14;96.24;99783.41;106236;1254;69522;-71
2023/12/11 03:40:45;;;;;;;9.70;6.80;;;;;;;-0.22;96.49;99781.64;106091;1253;72527;-73
2023/12/11 03:43:12;;;;;;;7.70;6.30;;;;;;;-0.20;96.52;99783.41;105906;1257;60905;-73
2023/12/11 03:45:39;;;;;;;9.60;7.70;;;;;;;-0.21;95.93;99778.59;106020;1253;60440;-73
2023/12/11 03:48:06;;;;;;;9.20;5.70;;;;;;;-0.32;95.90;99775.48;105838;1256;73807;-75
2023/12/11 03:50:32;;;;;;;7.10;5.00;;;;;;;-0.35;95.63;99774.45;105941;1253;69971;-75
2023/12/11 03:52:59;;;;;;;8.60;4.90;;;;;;;-0.34;95.01;99775.13;105937;1256;71425;-74
2023/12/11 03:55:26;;;;;;;7.60;5.60;;;;;;;-0.43;94.95;99772.70;105769;1254;60429;-74
2023/12/11 03:57:53;;;;;;;7.40;5.20;;;;;;;-0.52;95.17;99771.72;105908;1256;60533;-73
2023/12/11 04:00:20;;;;;;;7.20;4.70;;;;;;;-0.50;95.06;99766.70;108096;1255;72419;-74
2023/12/11 04:02:46;;;;;;;7.70;5.40;;;;;;;-0.47;94.78;99767.59;106585;1253;69085;-73
2023/12/11 04:05:13;;;;;;;6.30;4.70;;;;;;;-0.53;94.97;99754.71;105856;1254;72468;-74
2023/12/11 04:07:40;;;;;;;6.00;4.90;;;;;;;-0.56;95.11;99755.99;105850;1253;60873;-75
2023/12/11 04:10:07;;;;;;;7.00;4.60;;;;;;;-0.51;94.56;99750.92;105663;1254;60518;-74
2023/12/11 04:12:34;;;;;;;7.70;5.60;;;;;;;-0.48;94.60;99757.73;106147;1257;73708;-73
2023/12/11 04:15:01;;;;;;;8.60;6.30;;;;;;;-0.51;94.69;99752.36;106024;1253;68824;-75
2023/12/11 04:17:28;;;;;;;9.30;6.40;;;;;;;-0.56;94.81;99746.92;105789;1259;72456;-73
2023/12/11 04:19:57;;;;;;;7.80;5.00;;;;;;;-0.56;94.56;99746.92;105945;1251;61026;-73
2023/12/11 04:22:24;;;;;;;6.00;4.20;;;;;;;-0.47;94.13;99753.16;105880;1253;60435;-76
2023/12/11 04:24:51;;;;;;;7.70;5.60;;;;;;;-0.49;93.92;99753.09;106008;1253;73622;-75
2023/12/11 04:27:18;;;;;;;6.50;5.10;;;;;;;-0.55;93.88;99756.25;105843;1254;70303;-71
2023/12/11 04:29:44;;;;;;;7.10;4.70;;;;;;;-0.61;93.86;99750.19;106129;1252;72723;-75
2023/12/11 04:32:11;;;;;;;5.60;4.10;;;;;;;-0.55;93.51;99744.55;106863;1253;60852;-73
2023/12/11 04:34:38;;;;;;;6.80;4.50;;;;;;;-0.50;92.90;99748.98;107345;1253;60097;-76
2023/12/11 04:37:05;;;;;;;5.20;4.10;;;;;;;-0.56;92.77;99752.46;106351;1253;73818;-75
2023/12/11 04:39:32;;;;;;;8.00;4.80;;;;;;;-0.64;92.67;99757.48;105759;1253;70199;-76
2023/12/11 04:41:59;;;;;;;6.80;4.60;;;;;;;-0.61;92.82;99759.39;105977;1253;72682;-77
2023/12/11 04:44:25;;;;;;;20.00;11.90;;;;;;;-0.58;92.57;99758.72;105889;1254;60534;-77
2023/12/11 04:46:52;;;;;;;8.70;5.90;;;;;;;-0.63;92.82;99754.84;105871;1256;60540;-76
2023/12/11 04:49:19;;;;;;;6.00;4.30;;;;;;;-0.68;92.78;99753.08;105897;1252;73896;-74
2023/12/11 04:51:45;;;;;;;7.30;4.60;;;;;;;-0.64;92.61;99747.41;105732;1254;70203;-74
2023/12/11 04:54:12;;;;;;;5.90;4.10;;;;;;;-0.58;92.64;99744.95;105778;1253;72713;-75
2023/12/11 04:56:40;;;;;;;5.90;4.70;;;;;;;-0.63;92.75;99744.36;105816;1253;60500;-76
2023/12/11 04:59:06;;;;;;;6.40;4.10;;;;;;;-0.67;93.04;99739.93;105828;1253;60340;-75
2023/12/11 05:01:33;;;;;;;4.90;3.80;;;;;;;-0.65;92.77;99735.31;105900;1253;74345;-74
2023/12/11 05:04:00;;;;;;;6.10;4.80;;;;;;;-0.55;92.59;99736.43;105834;1256;69444;-76
2023/12/11 05:06:27;;;;;;;7.10;5.10;;;;;;;-0.56;92.54;99737.67;105866;1256;72722;-75
2023/12/11 05:08:53;;;;;;;6.90;5.50;;;;;;;-0.60;92.53;99730.98;105940;1256;60485;-74
2023/12/11 05:11:20;;;;;;;7.90;5.90;;;;;;;-0.63;92.72;99732.92;105945;1256;60381;-72
2023/12/11 05:13:47;;;;;;;7.30;5.00;;;;;;;-0.62;92.45;99725.05;106002;1253;74239;-74
2023/12/11 05:16:14;;;;;;;11.30;7.50;;;;;;;-0.52;91.99;99722.30;105987;1253;70198;-74
2023/12/11 05:18:41;;;;;;;11.10;7.50;;;;;;;-0.48;92.10;99719.63;105952;1253;73104;-76
2023/12/11 05:21:09;;;;;;;13.60;9.10;;;;;;;-0.49;92.61;99710.95;105769;1253;60449;-73
2023/12/11 05:23:36;;;;;;;18.50;10.80;;;;;;;-0.49;92.79;99701.75;106163;1254;60559;-75
2023/12/11 05:26:03;;;;;;;14.90;8.40;;;;;;;-0.51;92.76;99704.17;106347;1254;72744;-76
2023/12/11 05:28:30;;;;;;;8.60;6.10;;;;;;;-0.43;92.61;99698.79;106484;1253;70101;-74
2023/12/11 05:30:57;;;;;;;8.30;5.90;;;;;;;-0.36;92.10;99701.61;106218;1255;72692;-76
2023/12/11 05:33:24;;;;;;;9.10;5.90;;;;;;;-0.38;92.38;99691.86;106032;1253;60484;-78
2023/12/11 05:35:51;;;;;;;8.40;6.00;;;;;;;-0.42;92.72;99693.98;106307;1256;60385;-75
2023/12/11 05:38:17;;;;;;;9.00;6.30;;;;;;;-0.46;92.52;99693.00;105900;1256;73549;-77
2023/12/11 05:40:45;;;;;;;9.30;6.30;;;;;;;-0.41;92.30;99694.62;106011;1253;70166;-74
2023/12/11 05:43:12;;;;;;;10.20;5.90;;;;;;;-0.36;92.06;99691.04;105966;1254;74297;-74
2023/12/11 05:45:39;;;;;;;10.30;6.50;;;;;;;-0.41;92.40;99685.57;105822;1253;60460;-75
2023/12/11 05:48:05;;;;;;;12.50;7.30;;;;;;;-0.43;93.08;99688.13;105945;1252;60510;-74
2023/12/11 05:50:32;;;;;;;10.80;6.70;;;;;;;-0.46;93.35;99686.41;105886;1254;73187;-76
2023/12/11 05:53:01;;;;;;;8.40;6.20;;;;;;;-0.40;93.37;99676.69;106081;1252;70813;-73
2023/12/11 05:55:28;;;;;;;10.40;6.80;;;;;;;-0.34;93.34;99681.27;105724;1254;72707;-73
2023/12/11 05:57:54;;;;;;;12.40;7.50;;;;;;;-0.35;93.53;99681.04;106023;1253;60518;-74
2023/12/11 06:00:21;;;;;;;11.40;7.90;;;;;;;-0.39;93.78;99687.05;106034;1254;60411;-77
2023/12/11 06:02:49;;;;;;;13.70;7.70;;;;;;;-0.41;94.07;99695.66;106264;1253;73220;-78
2023/12/11 06:05:16;;;;;;;10.20;7.20;;;;;;;-0.33;94.03;99705.98;106293;1254;70131;-77
2023/12/11 06:07:43;;;;;;;10.20;7.60;;;;;;;-0.26;93.67;99704.26;106014;1254;71581;-79
2023/12/11 06:10:10;;;;;;;13.50;8.20;;;;;;;-0.26;93.86;99703.89;106142;1254;60579;-78
2023/12/11 06:12:37;;;;;;;10.20;7.40;;;;;;;-0.26;94.22;99701.11;106484;1253;60450;-79
2023/12/11 06:15:04;;;;;;;12.30;7.30;;;;;;;-0.29;94.20;99701.16;106417;1256;74543;-79
2023/12/11 06:17:31;;;;;;;11.70;8.10;;;;;;;-0.20;93.86;99708.23;106618;1254;69980;-77
2023/12/11 06:19:59;;;;;;;13.20;7.80;;;;;;;-0.13;93.67;99710.08;107647;1253;74376;-78
2023/12/11 06:22:26;;;;;;;12.00;8.30;;;;;;;-0.15;93.98;99710.70;107909;1254;60357;-78
2023/12/11 06:24:52;;;;;;;15.10;9.40;;;;;;;-0.21;94.02;99711.41;106677;1253;60457;-79
2023/12/11 06:27:19;;;;;;;21.00;10.10;;;;;;;-0.26;94.11;99707.56;106717;1253;72246;-80
2023/12/11 06:29:46;;;;;;;14.60;9.10;;;;;;;-0.19;94.29;99708.89;108314;1253;68936;-77
2023/12/11 06:32:13;;;;;;;13.30;8.50;;;;;;;-0.10;93.99;99697.33;109163;1253;71471;-80
2023/12/11 06:34:40;;;;;;;17.00;10.50;;;;;;;-0.08;93.97;99695.27;108870;1253;60427;-77
2023/12/11 06:37:07;;;;;;;14.30;8.60;;;;;;;-0.09;94.34;99697.59;108916;1252;59181;-78
2023/12/11 06:39:34;;;;;;;14.10;8.70;;;;;;;-0.09;94.33;99697.27;109255;1252;72278;-77
2023/12/11 06:42:01;;;;;;;14.20;8.40;;;;;;;-0.04;94.06;99689.44;109189;1252;68756;-79
2023/12/11 06:44:28;;;;;;;13.40;8.10;;;;;;;-0.01;94.18;99678.77;109489;1253;70250;-83
2023/12/11 06:46:56;;;;;;;11.40;7.50;;;;;;;-0.04;94.57;99679.64;109540;1252;58614;-83
2023/12/11 06:49:23;;;;;;;10.40;6.70;;;;;;;-0.03;94.92;99683.61;109416;1252;58796;-84
2023/12/11 06:51:52;;;;;;;9.50;6.40;;;;;;;0.01;94.77;99690.35;109333;1252;72529;-78
2023/12/11 06:54:19;;;;;;;8.80;5.90;;;;;;;0.13;94.39;99696.80;109482;1253;69021;-84
2023/12/11 06:56:47;;;;;;;8.80;5.80;;;;;;;0.16;94.22;99698.36;109445;1254;71515;-82
2023/12/11 06:59:14;;;;;;;8.80;6.30;;;;;;;0.14;94.42;99697.14;109392;1253;58012;-84
2023/12/11 07:01:41;;;;;;;8.30;5.90;;;;;;;0.12;94.54;99701.45;109506;1252;58846;-81
2023/12/11 07:04:08;;;;;;;6.50;5.20;;;;;;;0.19;94.26;99710.40;109403;1253;72589;-83
2023/12/11 07:06:35;;;;;;;10.60;7.10;;;;;;;0.24;93.72;99713.56;109025;1253;69115;-84
2023/12/11 07:09:03;;;;;;;12.40;8.00;;;;;;;0.17;93.55;99708.39;109325;1253;71405;-80
2023/12/11 07:11:30;;;;;;;15.00;8.30;;;;;;;0.12;93.92;99714.17;109338;1253;58937;-84
2023/12/11 07:13:57;;;;;;;13.70;8.00;;;;;;;0.11;93.87;99712.13;109119;1253;58849;-81
2023/12/11 07:16:25;;;;;;;14.90;9.80;;;;;;;0.19;93.52;99713.67;109340;1252;73693;-78
2023/12/11 07:18:52;;;;;;;11.50;7.50;;;;;;;0.24;93.55;99714.45;108990;1255;68756;-79
2023/12/11 07:21:20;;;;;;;14.30;8.90;;;;;;;0.19;93.23;99712.83;108773;1254;71409;-75
2023/12/11 07:23:50;;;;;;;9.70;6.80;;;;;;;0.12;93.04;99709.97;109166;1253;60168;-77
2023/12/11 07:26:17;;;;;;;8.10;5.60;;;;;;;0.16;92.81;99713.91;109173;1252;59061;-80
2023/12/11 07:28:44;;;;;;;10.20;5.90;;;;;;;0.17;92.70;99708.08;109322;1253;72540;-79
2023/12/11 07:31:10;;;;;;;9.70;6.70;;;;;;;0.11;92.83;99709.30;109343;1253;68882;-81
2023/12/11 07:33:37;;;;;;;8.90;6.10;;;;;;;0.06;93.23;99710.16;109233;1253;71485;-78
2023/12/11 07:36:05;;;;;;;7.20;4.70;;;;;;;0.10;92.99;99716.91;109347;1252;59747;-78
2023/12/11 07:38:33;;;;;;;7.50;4.70;;;;;;;0.10;92.46;99720.04;109129;1253;59168;-77
2023/12/11 07:41:00;;;;;;;6.80;4.70;;;;;;;0.06;92.52;99704.27;109308;1253;72699;-79
2023/12/11 07:43:31;;;;;;;7.80;5.70;;;;;;;-0.03;93.16;99693.02;109422;1253;69118;-80
2023/12/11 07:45:59;;;;;;;9.10;5.50;;;;;;;-0.13;93.73;99697.71;109387;1253;71184;-80
2023/12/11 07:48:28;;;;;;;7.00;4.60;;;;;;;-0.14;94.15;99697.22;109403;1253;59745;-80
2023/12/11 07:50:55;;;;;;;7.60;5.20;;;;;;;-0.06;93.99;99699.48;109247;1254;58944;-82
2023/12/11 07:53:22;;;;;;;6.70;5.30;;;;;;;-0.07;94.25;99708.60;109392;1253;72582;-83
2023/12/11 07:55:50;;;;;;;7.70;4.80;;;;;;;-0.15;94.42;99708.61;109365;1253;69491;-82
2023/12/11 07:58:18;;;;;;;6.80;4.60;;;;;;;-0.15;94.55;99698.20;109040;1253;71135;-81
2023/12/11 08:00:45;;;;;;;7.40;5.00;;;;;;;-0.08;94.55;99698.90;109288;1253;58086;-82
2023/12/11 08:03:13;;;;;;;8.20;5.90;;;;;;;-0.10;94.66;99691.06;109110;1254;58854;-80
2023/12/11 08:05:40;;;;;;;7.30;5.30;;;;;;;-0.19;95.26;99696.85;109321;1254;72890;-81
2023/12/11 08:08:07;;;;;;;6.50;4.70;;;;;;;-0.20;95.22;99691.84;109369;1253;68891;-82
2023/12/11 08:10:34;;;;;;;8.20;4.90;;;;;;;-0.12;95.26;99691.38;109307;1252;71367;-82
2023/12/11 08:13:03;;;;;;;7.50;5.10;;;;;;;-0.13;95.04;99688.63;109483;1252;58916;-82
2023/12/11 08:15:30;;;;;;;8.00;5.50;;;;;;;-0.21;95.15;99685.83;109439;1253;58977;-82
2023/12/11 08:18:03;;;;;;;6.00;4.50;;;;;;;-0.21;94.86;99680.47;109413;1252;72524;-82
2023/12/11 08:20:34;;;;;;;9.20;5.90;;;;;;;-0.16;94.24;99686.08;109206;1253;68863;-82
2023/12/11 08:23:01;;;;;;;11.10;6.80;;;;;;;-0.20;94.27;99680.20;109244;1252;71315;-80
2023/12/11 08:25:28;;;;;;;6.90;4.80;;;;;;;-0.28;94.64;99688.23;109138;1253;60643;-81
2023/12/11 08:27:55;;;;;;;13.00;8.60;;;;;;;-0.32;94.75;99686.23;109163;1252;59283;-81
2023/12/11 08:30:22;;;;;;;8.60;6.00;;;;;;;-0.26;94.62;99684.21;109059;1251;72901;-82
2023/12/11 08:32:50;;;;;;;10.20;6.40;;;;;;;-0.22;94.61;99684.88;109400;1253;69286;-80
2023/12/11 08:35:17;;;;;;;7.70;6.10;;;;;;;-0.32;94.16;99676.98;109301;1252;71528;-79
2023/12/11 08:37:44;;;;;;;5.30;4.20;;;;;;;-0.38;94.24;99683.11;109294;1251;59734;-81
2023/12/11 08:40:15;;;;;;;7.10;5.40;;;;;;;-0.34;93.83;99675.59;109299;1252;60276;-80
2023/12/11 08:42:42;;;;;;;9.70;5.20;;;;;;;-0.35;94.12;99673.39;109222;1252;72385;-82
2023/12/11 08:45:12;;;;;;;7.50;5.30;;;;;;;-0.43;94.29;99669.18;109264;1251;68957;-76
2023/12/11 08:47:41;;;;;;;8.80;6.00;;;;;;;-0.49;94.79;99675.14;109271;1253;71363;-79
2023/12/11 08:50:09;;;;;;;8.50;4.90;;;;;;;-0.46;94.34;99673.87;109402;1251;59778;-80
2023/12/11 08:52:36;;;;;;;10.40;5.70;;;;;;;-0.44;94.11;99665.24;109458;1255;58908;-80
2023/12/11 08:55:05;;;;;;;8.30;5.60;;;;;;;-0.47;94.14;99668.95;109009;1253;73560;-79
2023/12/11 08:57:33;;;;;;;8.40;5.50;;;;;;;-0.55;94.61;99670.33;109565;1252;68951;-82
2023/12/11 09:00:00;;;;;;;8.80;5.10;;;;;;;-0.53;94.41;99664.59;109678;1252;71642;-81
2023/12/11 09:02:28;;;;;;;6.90;5.00;;;;;;;-0.48;94.22;99666.22;109599;1251;59680;-82
2023/12/11 09:04:56;;;;;;;9.00;4.90;;;;;;;-0.56;94.47;99667.77;109773;1251;58847;-84
2023/12/11 09:07:30;;;;;;;8.50;5.70;;;;;;;-0.63;94.92;99659.48;109712;1251;72573;-83
2023/12/11 09:09:58;;;;;;;8.90;6.10;;;;;;;-0.60;94.64;99654.25;109507;1252;68827;-81
2023/12/11 09:12:26;;;;;;;8.30;6.10;;;;;;;-0.60;94.91;99655.65;109306;1252;71070;-80
2023/12/11 09:18:57;;;;;;;8.30;5.10;;;;;;;-0.62;95.68;99646.92;84256;1273;59045;-79
2023/12/11 09:25:08;;;;;;;10.70;6.50;;;;;;;-0.63;95.76;99638.09;108301;1267;69199;-79
2023/12/11 09:27:38;;;;;;;9.40;6.60;;;;;;;-0.56;95.72;99635.75;107024;1276;72925;-79
2023/12/11 09:30:10;;;;;;;10.10;6.40;;;;;;;-0.47;95.66;99635.00;105402;1273;60762;-78
2023/12/11 09:32:39;;;;;;;11.30;5.80;;;;;;;-0.52;95.89;99642.48;105688;1270;61813;-76
2023/12/11 09:35:08;;;;;;;8.00;5.10;;;;;;;-0.59;95.46;99641.16;105401;1273;73112;-80
2023/12/11 09:37:36;;;;;;;10.00;6.90;;;;;;;-0.60;95.29;99618.23;105770;1273;71661;-78
2023/12/11 09:40:03;;;;;;;11.10;7.10;;;;;;;-0.56;95.45;99622.34;104968;1274;72701;-80
2023/12/11 09:42:30;;;;;;;11.80;8.50;;;;;;;-0.62;95.82;99617.66;105237;1267;60484;-83
2023/12/11 09:44:57;;;;;;;10.10;6.80;;;;;;;-0.65;96.28;99621.90;105390;1270;60478;-83
2023/12/11 09:47:27;;;;;;;10.70;6.50;;;;;;;-0.58;96.07;99614.48;105560;1273;73635;-84
2023/12/11 09:49:54;;;;;;;12.00;7.30;;;;;;;-0.51;95.94;99616.46;105732;1268;70209;-82
2023/12/11 09:52:22;;;;;;;11.60;8.10;;;;;;;-0.56;95.72;99618.52;105399;1267;71232;-83
2023/12/11 09:54:49;;;;;;;13.60;8.80;;;;;;;-0.58;95.87;99618.29;105434;1273;60425;-81
2023/12/11 09:57:16;;;;;;;13.70;8.40;;;;;;;-0.52;95.32;99626.09;106621;1269;59853;-81
2023/12/11 09:59:43;;;;;;;15.00;8.70;;;;;;;-0.52;95.08;99623.69;107089;1267;73743;-79
2023/12/11 10:02:14;;;;;;;16.00;8.80;;;;;;;-0.65;94.72;99626.09;107113;1274;69515;-82
2023/12/11 10:05:04;;;;;;;13.60;7.70;;;;;;;-0.73;94.44;99621.73;106432;1267;72747;-81
2023/12/11 10:07:32;;;;;;;11.30;7.70;;;;;;;-0.75;94.16;99625.48;105639;1271;61360;-81
2023/12/11 10:10:22;;;;;;;10.90;7.50;;;;;;;-0.81;94.42;99619.61;105788;1267;60665;-82
2023/12/11 10:12:53;;;;;;;14.50;8.00;;;;;;;-0.91;94.64;99616.07;106873;1268;74419;-86
2023/12/11 10:15:28;;;;;;;9.20;5.30;;;;;;;-0.92;94.53;99622.07;107023;1267;71664;-85
2023/12/11 10:18:04;;;;;;;11.00;6.30;;;;;;;-0.92;94.26;99612.69;105973;1270;72413;-81
2023/12/11 10:20:32;;;;;;;9.40;6.70;;;;;;;-0.97;94.58;99614.89;106000;1273;60445;-80
2023/12/11 10:23:13;;;;;;;10.90;6.50;;;;;;;-1.05;94.97;99610.17;106090;1268;60439;-80
2023/12/11 10:25:43;;;;;;;8.20;5.50;;;;;;;-1.02;95.33;99613.27;105675;1276;73926;-81
2023/12/11 10:28:12;;;;;;;11.70;5.90;;;;;;;-1.02;94.92;99611.89;106458;1270;70242;-79
2023/12/11 10:30:55;;;;;;;7.90;5.40;;;;;;;-1.03;94.72;99598.08;106772;1269;71457;-83
2023/12/11 10:33:24;;;;;;;8.80;5.50;;;;;;;-0.96;94.77;99599.75;107704;1270;59362;-82
2023/12/11 10:35:52;;;;;;;16.20;7.70;;;;;;;-1.02;94.79;99597.45;107003;1268;59281;-83
2023/12/11 10:38:24;;;;;;;14.10;6.70;;;;;;;-1.02;94.88;99595.55;106409;1270;73865;-83
2023/12/11 10:40:52;;;;;;;15.00;7.20;;;;;;;-0.97;94.28;99600.45;106924;1269;68766;-83
2023/12/11 10:43:19;;;;;;;11.90;7.00;;;;;;;-1.05;94.23;99590.04;107549;1268;71483;-82
2023/12/11 10:45:47;;;;;;;12.40;8.40;;;;;;;-1.04;94.57;99584.24;107972;1268;60390;-85
2023/12/11 10:48:20;;;;;;;12.30;7.90;;;;;;;-1.00;94.64;99583.26;107657;1270;60272;-85
2023/12/11 10:50:50;;;;;;;15.50;8.20;;;;;;;-1.04;94.89;99569.42;107949;1267;73858;-84
2023/12/11 10:53:18;;;;;;;17.00;9.50;;;;;;;-1.02;95.08;99572.29;108520;1267;69203;-84
2023/12/11 10:55:46;;;;;;;22.50;10.30;;;;;;;-0.90;94.55;99567.88;107706;1272;72608;-81
2023/12/11 10:58:13;;;;;;;18.60;9.40;;;;;;;-0.87;93.87;99566.78;106293;1273;60372;-79
2023/12/11 11:00:40;;;;;;;17.80;9.20;;;;;;;-0.95;92.28;99576.73;105321;1270;60513;-79
2023/12/11 11:03:08;;;;;;;19.70;9.80;;;;;;;-0.98;91.75;99560.23;106180;1270;72567;-82
2023/12/11 11:05:35;;;;;;;18.60;10.20;;;;;;;-0.96;91.66;99560.23;107564;1267;69025;-82
2023/12/11 11:08:24;;;;;;;20.70;10.20;;;;;;;-0.99;91.45;99556.61;108133;1272;71446;-88
2023/12/11 11:10:58;;;;;;;17.40;9.10;;;;;;;-1.05;91.10;99561.34;108640;1268;60460;-87
2023/12/11 11:13:38;;;;;;;13.40;8.90;;;;;;;-0.98;90.97;99558.14;108152;1269;59314;-86
2023/12/11 11:16:06;;;;;;;14.40;9.30;;;;;;;-0.97;90.11;99556.29;107387;1271;75636;-88
2023/12/11 11:19:13;;;;;;;17.00;9.30;;;;;;;-1.03;90.55;99547.33;106631;1271;71750;-80
2023/12/11 11:21:40;;;;;;;16.00;8.90;;;;;;;-1.02;90.96;99557.98;105438;1268;73977;-80
2023/12/11 11:24:24;;;;;;;12.90;8.80;;;;;;;-0.91;90.39;99566.00;105488;1272;60581;-80
2023/12/11 11:26:51;;;;;;;15.70;9.30;;;;;;;-0.94;90.04;99553.89;105364;1270;60375;-80
2023/12/11 11:29:41;;;;;;;14.20;8.40;;;;;;;-1.04;90.01;99562.52;105488;1268;75753;-80
2023/12/11 11:32:10;;;;;;;15.00;9.30;;;;;;;-1.03;89.80;99556.51;106240;1270;71695;-80